sensor_id;sensor_type;location;lat;lon;timestamp;P1;durP1;ratioP1;P2;durP2;ratioP2
23470;SDS011;11908;50.806;4.424;2022-11-10T00:02:14;12.77;;;3.55;;
23470;SDS011;11908;50.806;4.424;2022-11-10T00:04:40;8.90;;;2.58;;
23470;SDS011;11908;50.806;4.424;2022-11-10T00:07:06;14.73;;;3.03;;
23470;SDS011;11908;50.806;4.424;2022-11-10T00:09:31;14.25;;;3.38;;
23470;SDS011;11908;50.806;4.424;2022-11-10T00:11:57;19.10;;;2.92;;
23470;SDS011;11908;50.806;4.424;2022-11-10T00:14:23;20.15;;;4.43;;
23470;SDS011;11908;50.806;4.424;2022-11-10T00:17:08;20.45;;;4.13;;
23470;SDS011;11908;50.806;4.424;2022-11-10T00:19:34;16.75;;;2.88;;
23470;SDS011;11908;50.806;4.424;2022-11-10T00:22:00;17.40;;;3.42;;
23470;SDS011;11908;50.806;4.424;2022-11-10T00:24:26;14.77;;;3.13;;
23470;SDS011;11908;50.806;4.424;2022-11-10T00:26:53;14.75;;;3.33;;
23470;SDS011;11908;50.806;4.424;2022-11-10T00:29:19;17.05;;;3.47;;
23470;SDS011;11908;50.806;4.424;2022-11-10T00:31:46;14.55;;;2.58;;
23470;SDS011;11908;50.806;4.424;2022-11-10T00:34:14;18.65;;;3.15;;
23470;SDS011;11908;50.806;4.424;2022-11-10T00:36:41;15.82;;;2.65;;
23470;SDS011;11908;50.806;4.424;2022-11-10T00:39:08;12.32;;;3.03;;
23470;SDS011;11908;50.806;4.424;2022-11-10T00:41:34;14.32;;;3.05;;
23470;SDS011;11908;50.806;4.424;2022-11-10T00:43:59;14.95;;;2.92;;
23470;SDS011;11908;50.806;4.424;2022-11-10T00:46:25;21.50;;;3.00;;
23470;SDS011;11908;50.806;4.424;2022-11-10T00:48:51;16.40;;;2.35;;
23470;SDS011;11908;50.806;4.424;2022-11-10T00:51:21;16.77;;;3.10;;
23470;SDS011;11908;50.806;4.424;2022-11-10T00:53:52;20.75;;;3.28;;
23470;SDS011;11908;50.806;4.424;2022-11-10T00:56:18;16.60;;;2.97;;
23470;SDS011;11908;50.806;4.424;2022-11-10T00:58:44;15.88;;;2.60;;
23470;SDS011;11908;50.806;4.424;2022-11-10T01:01:11;20.33;;;3.53;;
23470;SDS011;11908;50.806;4.424;2022-11-10T01:03:38;17.50;;;3.30;;
23470;SDS011;11908;50.806;4.424;2022-11-10T01:06:04;19.65;;;3.00;;
23470;SDS011;11908;50.806;4.424;2022-11-10T01:08:31;21.73;;;3.08;;
23470;SDS011;11908;50.806;4.424;2022-11-10T01:11:17;14.48;;;3.45;;
23470;SDS011;11908;50.806;4.424;2022-11-10T01:13:44;16.73;;;3.03;;
23470;SDS011;11908;50.806;4.424;2022-11-10T01:16:12;15.38;;;2.95;;
23470;SDS011;11908;50.806;4.424;2022-11-10T01:18:43;20.85;;;3.65;;
23470;SDS011;11908;50.806;4.424;2022-11-10T01:21:13;13.18;;;3.13;;
23470;SDS011;11908;50.806;4.424;2022-11-10T01:23:39;13.85;;;3.38;;
23470;SDS011;11908;50.806;4.424;2022-11-10T01:26:05;18.58;;;3.53;;
23470;SDS011;11908;50.806;4.424;2022-11-10T01:28:31;15.98;;;3.10;;
23470;SDS011;11908;50.806;4.424;2022-11-10T01:30:58;13.48;;;2.60;;
23470;SDS011;11908;50.806;4.424;2022-11-10T01:33:25;17.35;;;2.90;;
23470;SDS011;11908;50.806;4.424;2022-11-10T01:35:50;22.20;;;3.53;;
23470;SDS011;11908;50.806;4.424;2022-11-10T01:38:16;15.73;;;3.20;;
23470;SDS011;11908;50.806;4.424;2022-11-10T01:40:42;19.92;;;3.83;;
23470;SDS011;11908;50.806;4.424;2022-11-10T01:43:09;19.25;;;3.50;;
23470;SDS011;11908;50.806;4.424;2022-11-10T01:48:58;25.23;;;4.70;;
23470;SDS011;11908;50.806;4.424;2022-11-10T01:51:03;13.02;;;2.72;;
23470;SDS011;11908;50.806;4.424;2022-11-10T01:53:37;20.52;;;3.50;;
23470;SDS011;11908;50.806;4.424;2022-11-10T01:56:08;10.55;;;2.55;;
23470;SDS011;11908;50.806;4.424;2022-11-10T01:58:35;15.25;;;3.10;;
23470;SDS011;11908;50.806;4.424;2022-11-10T02:01:05;19.77;;;3.15;;
23470;SDS011;11908;50.806;4.424;2022-11-10T02:03:34;15.68;;;2.95;;
23470;SDS011;11908;50.806;4.424;2022-11-10T02:06:09;15.75;;;3.40;;
23470;SDS011;11908;50.806;4.424;2022-11-10T02:08:36;14.18;;;2.97;;
23470;SDS011;11908;50.806;4.424;2022-11-10T02:11:02;14.40;;;3.00;;
23470;SDS011;11908;50.806;4.424;2022-11-10T02:13:28;17.70;;;3.22;;
23470;SDS011;11908;50.806;4.424;2022-11-10T02:15:54;13.85;;;3.13;;
23470;SDS011;11908;50.806;4.424;2022-11-10T02:18:20;16.05;;;3.13;;
23470;SDS011;11908;50.806;4.424;2022-11-10T02:20:46;20.42;;;3.67;;
23470;SDS011;11908;50.806;4.424;2022-11-10T02:25:59;15.70;;;3.45;;
23470;SDS011;11908;50.806;4.424;2022-11-10T02:28:26;16.52;;;2.78;;
23470;SDS011;11908;50.806;4.424;2022-11-10T02:30:52;19.52;;;4.05;;
23470;SDS011;11908;50.806;4.424;2022-11-10T02:33:18;15.48;;;2.80;;
23470;SDS011;11908;50.806;4.424;2022-11-10T02:35:45;21.13;;;2.95;;
23470;SDS011;11908;50.806;4.424;2022-11-10T02:38:11;16.45;;;2.63;;
23470;SDS011;11908;50.806;4.424;2022-11-10T02:40:37;19.00;;;3.72;;
23470;SDS011;11908;50.806;4.424;2022-11-10T02:43:04;17.75;;;2.97;;
23470;SDS011;11908;50.806;4.424;2022-11-10T02:45:32;18.92;;;3.03;;
23470;SDS011;11908;50.806;4.424;2022-11-10T02:47:57;14.50;;;3.30;;
23470;SDS011;11908;50.806;4.424;2022-11-10T02:50:23;11.52;;;2.80;;
23470;SDS011;11908;50.806;4.424;2022-11-10T02:52:49;19.77;;;3.22;;
23470;SDS011;11908;50.806;4.424;2022-11-10T02:55:14;18.13;;;3.30;;
23470;SDS011;11908;50.806;4.424;2022-11-10T02:57:40;15.40;;;2.78;;
23470;SDS011;11908;50.806;4.424;2022-11-10T03:00:06;13.48;;;2.60;;
23470;SDS011;11908;50.806;4.424;2022-11-10T03:02:32;11.43;;;3.15;;
23470;SDS011;11908;50.806;4.424;2022-11-10T03:04:58;21.25;;;2.35;;
23470;SDS011;11908;50.806;4.424;2022-11-10T03:07:24;13.30;;;2.97;;
23470;SDS011;11908;50.806;4.424;2022-11-10T03:09:50;20.45;;;3.08;;
23470;SDS011;11908;50.806;4.424;2022-11-10T03:12:16;19.23;;;3.33;;
23470;SDS011;11908;50.806;4.424;2022-11-10T03:14:42;14.57;;;2.80;;
23470;SDS011;11908;50.806;4.424;2022-11-10T03:17:07;21.02;;;3.35;;
23470;SDS011;11908;50.806;4.424;2022-11-10T03:19:33;17.08;;;3.10;;
23470;SDS011;11908;50.806;4.424;2022-11-10T03:22:00;15.20;;;3.10;;
23470;SDS011;11908;50.806;4.424;2022-11-10T03:24:25;22.02;;;3.10;;
23470;SDS011;11908;50.806;4.424;2022-11-10T03:26:51;16.30;;;3.28;;
23470;SDS011;11908;50.806;4.424;2022-11-10T03:29:17;15.23;;;3.50;;
23470;SDS011;11908;50.806;4.424;2022-11-10T03:31:42;13.52;;;3.45;;
23470;SDS011;11908;50.806;4.424;2022-11-10T03:34:08;16.63;;;3.88;;
23470;SDS011;11908;50.806;4.424;2022-11-10T03:36:34;17.55;;;3.08;;
23470;SDS011;11908;50.806;4.424;2022-11-10T03:38:59;22.92;;;3.40;;
23470;SDS011;11908;50.806;4.424;2022-11-10T03:41:25;24.55;;;3.03;;
23470;SDS011;11908;50.806;4.424;2022-11-10T03:43:51;17.30;;;3.50;;
23470;SDS011;11908;50.806;4.424;2022-11-10T03:46:16;14.63;;;3.63;;
23470;SDS011;11908;50.806;4.424;2022-11-10T03:48:42;16.30;;;3.38;;
23470;SDS011;11908;50.806;4.424;2022-11-10T03:51:08;18.20;;;3.47;;
23470;SDS011;11908;50.806;4.424;2022-11-10T03:53:34;22.92;;;3.70;;
23470;SDS011;11908;50.806;4.424;2022-11-10T03:56:00;21.40;;;3.38;;
23470;SDS011;11908;50.806;4.424;2022-11-10T03:58:29;21.25;;;3.65;;
23470;SDS011;11908;50.806;4.424;2022-11-10T04:00:55;26.30;;;3.63;;
23470;SDS011;11908;50.806;4.424;2022-11-10T04:03:21;16.95;;;3.40;;
23470;SDS011;11908;50.806;4.424;2022-11-10T04:05:48;13.50;;;3.47;;
23470;SDS011;11908;50.806;4.424;2022-11-10T04:08:33;11.77;;;3.33;;
23470;SDS011;11908;50.806;4.424;2022-11-10T04:11:17;20.13;;;3.13;;
23470;SDS011;11908;50.806;4.424;2022-11-10T04:14:02;13.75;;;3.05;;
23470;SDS011;11908;50.806;4.424;2022-11-10T04:16:47;19.17;;;3.67;;
23470;SDS011;11908;50.806;4.424;2022-11-10T04:19:12;17.13;;;3.15;;
23470;SDS011;11908;50.806;4.424;2022-11-10T04:21:38;17.95;;;2.90;;
23470;SDS011;11908;50.806;4.424;2022-11-10T04:24:04;13.45;;;3.10;;
23470;SDS011;11908;50.806;4.424;2022-11-10T04:26:30;19.98;;;3.38;;
23470;SDS011;11908;50.806;4.424;2022-11-10T04:29:00;12.73;;;2.85;;
23470;SDS011;11908;50.806;4.424;2022-11-10T04:31:28;27.52;;;3.50;;
23470;SDS011;11908;50.806;4.424;2022-11-10T04:33:55;10.70;;;2.75;;
23470;SDS011;11908;50.806;4.424;2022-11-10T04:36:22;24.33;;;3.67;;
23470;SDS011;11908;50.806;4.424;2022-11-10T04:38:53;21.10;;;4.03;;
23470;SDS011;11908;50.806;4.424;2022-11-10T04:41:19;19.92;;;3.65;;
23470;SDS011;11908;50.806;4.424;2022-11-10T04:43:46;21.17;;;4.05;;
23470;SDS011;11908;50.806;4.424;2022-11-10T04:46:22;23.85;;;4.20;;
23470;SDS011;11908;50.806;4.424;2022-11-10T04:48:50;22.88;;;3.38;;
23470;SDS011;11908;50.806;4.424;2022-11-10T04:51:17;18.15;;;3.50;;
23470;SDS011;11908;50.806;4.424;2022-11-10T04:53:43;18.95;;;3.25;;
23470;SDS011;11908;50.806;4.424;2022-11-10T04:56:16;21.83;;;3.63;;
23470;SDS011;11908;50.806;4.424;2022-11-10T05:01:12;18.95;;;3.17;;
23470;SDS011;11908;50.806;4.424;2022-11-10T05:03:40;12.40;;;3.45;;
23470;SDS011;11908;50.806;4.424;2022-11-10T05:06:06;17.75;;;3.17;;
23470;SDS011;11908;50.806;4.424;2022-11-10T05:08:33;25.42;;;3.40;;
23470;SDS011;11908;50.806;4.424;2022-11-10T05:10:59;28.13;;;3.85;;
23470;SDS011;11908;50.806;4.424;2022-11-10T05:13:25;23.38;;;3.38;;
23470;SDS011;11908;50.806;4.424;2022-11-10T05:15:51;18.67;;;3.92;;
23470;SDS011;11908;50.806;4.424;2022-11-10T05:18:17;19.20;;;3.72;;
23470;SDS011;11908;50.806;4.424;2022-11-10T05:20:43;26.77;;;3.80;;
23470;SDS011;11908;50.806;4.424;2022-11-10T05:23:09;25.60;;;3.10;;
23470;SDS011;11908;50.806;4.424;2022-11-10T05:25:53;20.80;;;3.33;;
23470;SDS011;11908;50.806;4.424;2022-11-10T05:28:18;30.05;;;3.60;;
23470;SDS011;11908;50.806;4.424;2022-11-10T05:30:44;21.30;;;3.85;;
23470;SDS011;11908;50.806;4.424;2022-11-10T05:33:10;19.42;;;3.67;;
23470;SDS011;11908;50.806;4.424;2022-11-10T05:35:35;26.27;;;4.15;;
23470;SDS011;11908;50.806;4.424;2022-11-10T05:38:02;17.30;;;3.40;;
23470;SDS011;11908;50.806;4.424;2022-11-10T05:40:29;20.52;;;3.85;;
23470;SDS011;11908;50.806;4.424;2022-11-10T05:42:55;21.08;;;3.83;;
23470;SDS011;11908;50.806;4.424;2022-11-10T05:45:21;19.70;;;4.05;;
23470;SDS011;11908;50.806;4.424;2022-11-10T05:47:48;21.40;;;3.67;;
23470;SDS011;11908;50.806;4.424;2022-11-10T05:50:14;23.13;;;4.15;;
23470;SDS011;11908;50.806;4.424;2022-11-10T05:52:48;21.42;;;3.22;;
23470;SDS011;11908;50.806;4.424;2022-11-10T05:55:15;18.75;;;3.38;;
23470;SDS011;11908;50.806;4.424;2022-11-10T05:57:44;22.75;;;4.20;;
23470;SDS011;11908;50.806;4.424;2022-11-10T06:00:11;23.73;;;3.75;;
23470;SDS011;11908;50.806;4.424;2022-11-10T06:02:38;15.38;;;3.22;;
23470;SDS011;11908;50.806;4.424;2022-11-10T06:05:04;17.17;;;3.28;;
23470;SDS011;11908;50.806;4.424;2022-11-10T06:07:30;22.20;;;3.78;;
23470;SDS011;11908;50.806;4.424;2022-11-10T06:09:56;21.38;;;3.80;;
23470;SDS011;11908;50.806;4.424;2022-11-10T06:12:21;23.52;;;3.67;;
23470;SDS011;11908;50.806;4.424;2022-11-10T06:14:49;21.85;;;3.55;;
23470;SDS011;11908;50.806;4.424;2022-11-10T06:17:15;23.30;;;3.92;;
23470;SDS011;11908;50.806;4.424;2022-11-10T06:19:41;23.00;;;4.40;;
23470;SDS011;11908;50.806;4.424;2022-11-10T06:22:08;18.88;;;4.45;;
23470;SDS011;11908;50.806;4.424;2022-11-10T06:24:33;19.73;;;4.68;;
23470;SDS011;11908;50.806;4.424;2022-11-10T06:26:59;29.00;;;4.35;;
23470;SDS011;11908;50.806;4.424;2022-11-10T06:29:25;15.60;;;4.13;;
23470;SDS011;11908;50.806;4.424;2022-11-10T06:31:50;22.85;;;4.38;;
23470;SDS011;11908;50.806;4.424;2022-11-10T06:34:17;23.10;;;4.90;;
23470;SDS011;11908;50.806;4.424;2022-11-10T06:36:42;20.98;;;4.45;;
23470;SDS011;11908;50.806;4.424;2022-11-10T06:39:08;24.13;;;4.85;;
23470;SDS011;11908;50.806;4.424;2022-11-10T06:41:34;33.53;;;4.70;;
23470;SDS011;11908;50.806;4.424;2022-11-10T06:43:59;21.85;;;4.65;;
23470;SDS011;11908;50.806;4.424;2022-11-10T06:46:25;15.75;;;4.20;;
23470;SDS011;11908;50.806;4.424;2022-11-10T06:48:51;22.15;;;4.57;;
23470;SDS011;11908;50.806;4.424;2022-11-10T06:51:17;19.35;;;4.22;;
23470;SDS011;11908;50.806;4.424;2022-11-10T06:53:42;20.10;;;5.15;;
23470;SDS011;11908;50.806;4.424;2022-11-10T06:56:08;26.52;;;5.38;;
23470;SDS011;11908;50.806;4.424;2022-11-10T06:58:34;25.60;;;5.25;;
23470;SDS011;11908;50.806;4.424;2022-11-10T07:00:59;17.45;;;5.03;;
23470;SDS011;11908;50.806;4.424;2022-11-10T07:03:26;23.27;;;5.32;;
23470;SDS011;11908;50.806;4.424;2022-11-10T07:05:51;22.23;;;5.30;;
23470;SDS011;11908;50.806;4.424;2022-11-10T07:08:17;26.20;;;5.70;;
23470;SDS011;11908;50.806;4.424;2022-11-10T07:10:44;33.13;;;6.25;;
23470;SDS011;11908;50.806;4.424;2022-11-10T07:13:16;28.00;;;5.45;;
23470;SDS011;11908;50.806;4.424;2022-11-10T07:15:42;25.60;;;5.20;;
23470;SDS011;11908;50.806;4.424;2022-11-10T07:18:07;22.65;;;5.60;;
23470;SDS011;11908;50.806;4.424;2022-11-10T07:20:33;29.25;;;5.75;;
23470;SDS011;11908;50.806;4.424;2022-11-10T07:23:00;20.65;;;4.95;;
23470;SDS011;11908;50.806;4.424;2022-11-10T07:25:28;18.17;;;5.60;;
23470;SDS011;11908;50.806;4.424;2022-11-10T07:27:55;27.33;;;5.20;;
23470;SDS011;11908;50.806;4.424;2022-11-10T07:30:22;29.35;;;6.78;;
23470;SDS011;11908;50.806;4.424;2022-11-10T07:33:01;16.95;;;4.78;;
23470;SDS011;11908;50.806;4.424;2022-11-10T07:35:28;24.08;;;4.93;;
23470;SDS011;11908;50.806;4.424;2022-11-10T07:37:55;23.10;;;5.88;;
23470;SDS011;11908;50.806;4.424;2022-11-10T07:40:22;26.33;;;5.57;;
23470;SDS011;11908;50.806;4.424;2022-11-10T07:42:48;26.83;;;5.18;;
23470;SDS011;11908;50.806;4.424;2022-11-10T07:45:13;24.52;;;5.05;;
23470;SDS011;11908;50.806;4.424;2022-11-10T07:47:39;19.40;;;4.95;;
23470;SDS011;11908;50.806;4.424;2022-11-10T07:50:05;25.48;;;4.40;;
23470;SDS011;11908;50.806;4.424;2022-11-10T07:52:31;21.92;;;4.47;;
23470;SDS011;11908;50.806;4.424;2022-11-10T07:54:57;25.15;;;4.75;;
23470;SDS011;11908;50.806;4.424;2022-11-10T07:57:22;24.48;;;4.30;;
23470;SDS011;11908;50.806;4.424;2022-11-10T07:59:48;23.48;;;4.28;;
23470;SDS011;11908;50.806;4.424;2022-11-10T08:02:13;20.17;;;4.43;;
23470;SDS011;11908;50.806;4.424;2022-11-10T08:04:39;18.88;;;4.32;;
23470;SDS011;11908;50.806;4.424;2022-11-10T08:07:05;17.75;;;4.10;;
23470;SDS011;11908;50.806;4.424;2022-11-10T08:09:30;17.80;;;4.38;;
23470;SDS011;11908;50.806;4.424;2022-11-10T08:11:56;19.83;;;4.45;;
23470;SDS011;11908;50.806;4.424;2022-11-10T08:14:21;17.67;;;4.47;;
23470;SDS011;11908;50.806;4.424;2022-11-10T08:16:47;19.48;;;4.93;;
23470;SDS011;11908;50.806;4.424;2022-11-10T08:19:13;17.95;;;3.70;;
23470;SDS011;11908;50.806;4.424;2022-11-10T08:21:38;23.50;;;5.38;;
23470;SDS011;11908;50.806;4.424;2022-11-10T08:24:04;26.55;;;4.60;;
23470;SDS011;11908;50.806;4.424;2022-11-10T08:26:30;23.75;;;6.10;;
23470;SDS011;11908;50.806;4.424;2022-11-10T08:28:56;23.63;;;6.47;;
23470;SDS011;11908;50.806;4.424;2022-11-10T08:31:22;23.52;;;5.38;;
23470;SDS011;11908;50.806;4.424;2022-11-10T08:33:48;21.17;;;4.63;;
23470;SDS011;11908;50.806;4.424;2022-11-10T08:36:13;23.05;;;4.82;;
23470;SDS011;11908;50.806;4.424;2022-11-10T08:38:39;15.45;;;4.43;;
23470;SDS011;11908;50.806;4.424;2022-11-10T08:41:05;21.77;;;4.30;;
23470;SDS011;11908;50.806;4.424;2022-11-10T08:43:30;18.60;;;5.85;;
23470;SDS011;11908;50.806;4.424;2022-11-10T08:45:56;21.88;;;5.40;;
23470;SDS011;11908;50.806;4.424;2022-11-10T08:48:22;14.38;;;4.53;;
23470;SDS011;11908;50.806;4.424;2022-11-10T08:50:48;13.35;;;3.95;;
23470;SDS011;11908;50.806;4.424;2022-11-10T08:53:15;22.33;;;4.43;;
23470;SDS011;11908;50.806;4.424;2022-11-10T08:55:42;27.05;;;5.22;;
23470;SDS011;11908;50.806;4.424;2022-11-10T08:58:10;17.38;;;4.35;;
23470;SDS011;11908;50.806;4.424;2022-11-10T09:00:37;22.27;;;4.03;;
23470;SDS011;11908;50.806;4.424;2022-11-10T09:03:05;19.30;;;4.00;;
23470;SDS011;11908;50.806;4.424;2022-11-10T09:05:38;13.70;;;3.75;;
23470;SDS011;11908;50.806;4.424;2022-11-10T09:08:04;14.50;;;4.18;;
23470;SDS011;11908;50.806;4.424;2022-11-10T09:10:33;19.75;;;4.35;;
23470;SDS011;11908;50.806;4.424;2022-11-10T09:13:00;17.20;;;3.22;;
23470;SDS011;11908;50.806;4.424;2022-11-10T09:15:27;14.27;;;3.13;;
23470;SDS011;11908;50.806;4.424;2022-11-10T09:17:56;19.13;;;3.38;;
23470;SDS011;11908;50.806;4.424;2022-11-10T09:20:22;16.33;;;3.30;;
23470;SDS011;11908;50.806;4.424;2022-11-10T09:22:48;10.25;;;3.17;;
23470;SDS011;11908;50.806;4.424;2022-11-10T09:25:14;12.43;;;3.15;;
23470;SDS011;11908;50.806;4.424;2022-11-10T09:27:40;17.17;;;3.33;;
23470;SDS011;11908;50.806;4.424;2022-11-10T09:30:06;18.52;;;3.30;;
23470;SDS011;11908;50.806;4.424;2022-11-10T09:32:32;15.88;;;3.33;;
23470;SDS011;11908;50.806;4.424;2022-11-10T09:34:58;19.38;;;3.30;;
23470;SDS011;11908;50.806;4.424;2022-11-10T09:37:24;15.13;;;3.08;;
23470;SDS011;11908;50.806;4.424;2022-11-10T09:39:50;17.85;;;3.20;;
23470;SDS011;11908;50.806;4.424;2022-11-10T09:42:26;18.58;;;4.07;;
23470;SDS011;11908;50.806;4.424;2022-11-10T09:50:35;13.10;;;3.22;;
23470;SDS011;11908;50.806;4.424;2022-11-10T09:53:14;16.58;;;3.25;;
23470;SDS011;11908;50.806;4.424;2022-11-10T09:55:57;13.30;;;2.78;;
23470;SDS011;11908;50.806;4.424;2022-11-10T09:58:28;12.15;;;2.70;;
23470;SDS011;11908;50.806;4.424;2022-11-10T10:01:06;11.18;;;2.38;;
23470;SDS011;11908;50.806;4.424;2022-11-10T10:04:06;11.30;;;2.53;;
23470;SDS011;11908;50.806;4.424;2022-11-10T10:09:37;9.13;;;2.33;;
23470;SDS011;11908;50.806;4.424;2022-11-10T10:12:17;12.25;;;2.67;;
23470;SDS011;11908;50.806;4.424;2022-11-10T10:17:27;13.80;;;3.22;;
23470;SDS011;11908;50.806;4.424;2022-11-10T10:20:12;11.07;;;2.65;;
23470;SDS011;11908;50.806;4.424;2022-11-10T10:25:22;11.07;;;2.70;;
23470;SDS011;11908;50.806;4.424;2022-11-10T10:27:55;11.88;;;2.83;;
23470;SDS011;11908;50.806;4.424;2022-11-10T10:30:40;9.48;;;2.47;;
23470;SDS011;11908;50.806;4.424;2022-11-10T10:33:11;12.02;;;2.75;;
23470;SDS011;11908;50.806;4.424;2022-11-10T10:35:37;9.63;;;2.63;;
23470;SDS011;11908;50.806;4.424;2022-11-10T10:38:04;13.45;;;3.40;;
23470;SDS011;11908;50.806;4.424;2022-11-10T10:40:40;8.05;;;2.42;;
23470;SDS011;11908;50.806;4.424;2022-11-10T10:43:07;9.43;;;2.72;;
23470;SDS011;11908;50.806;4.424;2022-11-10T10:45:33;10.73;;;2.95;;
23470;SDS011;11908;50.806;4.424;2022-11-10T10:48:03;9.90;;;2.72;;
23470;SDS011;11908;50.806;4.424;2022-11-10T10:50:51;9.65;;;2.67;;
23470;SDS011;11908;50.806;4.424;2022-11-10T10:53:20;10.48;;;2.70;;
23470;SDS011;11908;50.806;4.424;2022-11-10T10:55:55;11.40;;;2.65;;
23470;SDS011;11908;50.806;4.424;2022-11-10T11:03:45;13.57;;;2.65;;
23470;SDS011;11908;50.806;4.424;2022-11-10T11:08:54;8.73;;;2.75;;
23470;SDS011;11908;50.806;4.424;2022-11-10T11:11:28;10.70;;;2.58;;
23470;SDS011;11908;50.806;4.424;2022-11-10T11:14:21;10.50;;;2.83;;
23470;SDS011;11908;50.806;4.424;2022-11-10T11:19:16;10.10;;;2.58;;
23470;SDS011;11908;50.806;4.424;2022-11-10T11:22:47;12.50;;;2.67;;
23470;SDS011;11908;50.806;4.424;2022-11-10T11:30:37;7.55;;;2.15;;
23470;SDS011;11908;50.806;4.424;2022-11-10T11:39:03;7.40;;;1.70;;
23470;SDS011;11908;50.806;4.424;2022-11-10T11:52:54;8.88;;;2.22;;
23470;SDS011;11908;50.806;4.424;2022-11-10T12:00:56;7.03;;;2.42;;
23470;SDS011;11908;50.806;4.424;2022-11-10T12:31:40;10.55;;;2.30;;
23470;SDS011;11908;50.806;4.424;2022-11-10T12:36:37;7.95;;;2.08;;
23470;SDS011;11908;50.806;4.424;2022-11-10T12:39:06;10.88;;;2.10;;
23470;SDS011;11908;50.806;4.424;2022-11-10T12:41:57;8.68;;;2.38;;
23470;SDS011;11908;50.806;4.424;2022-11-10T12:47:00;8.70;;;2.33;;
23470;SDS011;11908;50.806;4.424;2022-11-10T12:49:34;11.07;;;2.28;;
23470;SDS011;11908;50.806;4.424;2022-11-10T12:52:22;12.43;;;2.40;;
23470;SDS011;11908;50.806;4.424;2022-11-10T12:54:52;8.25;;;2.25;;
23470;SDS011;11908;50.806;4.424;2022-11-10T12:57:19;7.90;;;2.10;;
23470;SDS011;11908;50.806;4.424;2022-11-10T12:59:59;4.72;;;1.85;;
23470;SDS011;11908;50.806;4.424;2022-11-10T13:02:37;7.18;;;2.58;;
23470;SDS011;11908;50.806;4.424;2022-11-10T13:07:48;9.25;;;2.97;;
23470;SDS011;11908;50.806;4.424;2022-11-10T13:10:25;4.40;;;1.92;;
23470;SDS011;11908;50.806;4.424;2022-11-10T13:18:05;7.43;;;2.97;;
23470;SDS011;11908;50.806;4.424;2022-11-10T13:23:21;5.57;;;2.40;;
23470;SDS011;11908;50.806;4.424;2022-11-10T13:36:40;7.40;;;2.38;;
23470;SDS011;11908;50.806;4.424;2022-11-10T13:41:48;8.88;;;2.28;;
23470;SDS011;11908;50.806;4.424;2022-11-10T13:44:25;10.00;;;2.50;;
23470;SDS011;11908;50.806;4.424;2022-11-10T13:52:19;5.80;;;2.67;;
23470;SDS011;11908;50.806;4.424;2022-11-10T14:00:06;12.70;;;3.03;;
23470;SDS011;11908;50.806;4.424;2022-11-10T14:02:55;6.93;;;2.83;;
23470;SDS011;11908;50.806;4.424;2022-11-10T14:07:54;9.75;;;2.47;;
23470;SDS011;11908;50.806;4.424;2022-11-10T14:10:36;6.32;;;2.08;;
23470;SDS011;11908;50.806;4.424;2022-11-10T14:13:25;12.27;;;2.63;;
23470;SDS011;11908;50.806;4.424;2022-11-10T14:15:52;10.07;;;2.17;;
23470;SDS011;11908;50.806;4.424;2022-11-10T14:18:23;8.95;;;2.33;;
23470;SDS011;11908;50.806;4.424;2022-11-10T14:20:56;7.65;;;2.00;;
23470;SDS011;11908;50.806;4.424;2022-11-10T14:23:31;9.60;;;2.00;;
23470;SDS011;11908;50.806;4.424;2022-11-10T14:26:12;6.90;;;1.98;;
23470;SDS011;11908;50.806;4.424;2022-11-10T14:29:17;9.40;;;2.03;;
23470;SDS011;11908;50.806;4.424;2022-11-10T14:31:43;11.60;;;2.45;;
23470;SDS011;11908;50.806;4.424;2022-11-10T14:34:12;7.05;;;1.85;;
23470;SDS011;11908;50.806;4.424;2022-11-10T14:36:48;10.25;;;2.17;;
23470;SDS011;11908;50.806;4.424;2022-11-10T14:39:15;8.57;;;1.60;;
23470;SDS011;11908;50.806;4.424;2022-11-10T14:41:45;5.90;;;1.77;;
23470;SDS011;11908;50.806;4.424;2022-11-10T14:44:12;8.25;;;1.67;;
23470;SDS011;11908;50.806;4.424;2022-11-10T14:46:44;14.15;;;2.17;;
23470;SDS011;11908;50.806;4.424;2022-11-10T14:49:10;5.07;;;1.40;;
23470;SDS011;11908;50.806;4.424;2022-11-10T14:51:35;9.27;;;1.90;;
23470;SDS011;11908;50.806;4.424;2022-11-10T14:54:01;11.25;;;3.00;;
23470;SDS011;11908;50.806;4.424;2022-11-10T14:56:28;7.00;;;2.00;;
23470;SDS011;11908;50.806;4.424;2022-11-10T14:58:56;11.57;;;2.50;;
23470;SDS011;11908;50.806;4.424;2022-11-10T15:01:26;9.25;;;1.98;;
23470;SDS011;11908;50.806;4.424;2022-11-10T15:04:00;11.60;;;2.15;;
23470;SDS011;11908;50.806;4.424;2022-11-10T15:06:27;9.30;;;2.10;;
23470;SDS011;11908;50.806;4.424;2022-11-10T15:08:54;10.23;;;2.45;;
23470;SDS011;11908;50.806;4.424;2022-11-10T15:14:04;10.57;;;2.75;;
23470;SDS011;11908;50.806;4.424;2022-11-10T15:16:59;6.65;;;2.60;;
23470;SDS011;11908;50.806;4.424;2022-11-10T15:19:27;10.75;;;2.58;;
23470;SDS011;11908;50.806;4.424;2022-11-10T15:21:55;8.85;;;2.28;;
23470;SDS011;11908;50.806;4.424;2022-11-10T15:24:28;8.45;;;2.25;;
23470;SDS011;11908;50.806;4.424;2022-11-10T15:26:53;14.35;;;2.55;;
23470;SDS011;11908;50.806;4.424;2022-11-10T15:29:20;8.35;;;2.53;;
23470;SDS011;11908;50.806;4.424;2022-11-10T15:31:47;11.43;;;2.60;;
23470;SDS011;11908;50.806;4.424;2022-11-10T15:37:26;9.68;;;2.60;;
23470;SDS011;11908;50.806;4.424;2022-11-10T15:43:14;13.30;;;3.13;;
23470;SDS011;11908;50.806;4.424;2022-11-10T15:45:58;9.65;;;2.60;;
23470;SDS011;11908;50.806;4.424;2022-11-10T15:48:26;11.35;;;2.42;;
23470;SDS011;11908;50.806;4.424;2022-11-10T15:51:17;13.45;;;2.90;;
23470;SDS011;11908;50.806;4.424;2022-11-10T15:53:45;11.50;;;3.22;;
23470;SDS011;11908;50.806;4.424;2022-11-10T15:56:12;12.32;;;2.40;;
23470;SDS011;11908;50.806;4.424;2022-11-10T15:58:41;9.57;;;2.40;;
23470;SDS011;11908;50.806;4.424;2022-11-10T16:01:12;14.30;;;3.00;;
23470;SDS011;11908;50.806;4.424;2022-11-10T16:03:38;8.63;;;2.60;;
23470;SDS011;11908;50.806;4.424;2022-11-10T16:06:04;12.05;;;2.35;;
23470;SDS011;11908;50.806;4.424;2022-11-10T16:08:30;11.35;;;3.15;;
23470;SDS011;11908;50.806;4.424;2022-11-10T16:10:58;11.07;;;2.55;;
23470;SDS011;11908;50.806;4.424;2022-11-10T16:13:24;9.18;;;2.78;;
23470;SDS011;11908;50.806;4.424;2022-11-10T16:15:52;11.27;;;2.80;;
23470;SDS011;11908;50.806;4.424;2022-11-10T16:18:19;8.18;;;2.97;;
23470;SDS011;11908;50.806;4.424;2022-11-10T16:20:47;10.50;;;3.30;;
23470;SDS011;11908;50.806;4.424;2022-11-10T16:23:14;10.10;;;2.85;;
23470;SDS011;11908;50.806;4.424;2022-11-10T16:25:40;13.63;;;3.35;;
23470;SDS011;11908;50.806;4.424;2022-11-10T16:28:10;9.68;;;3.08;;
23470;SDS011;11908;50.806;4.424;2022-11-10T16:30:38;10.60;;;2.90;;
23470;SDS011;11908;50.806;4.424;2022-11-10T16:33:09;13.27;;;3.00;;
23470;SDS011;11908;50.806;4.424;2022-11-10T16:35:41;13.13;;;3.30;;
23470;SDS011;11908;50.806;4.424;2022-11-10T16:38:17;11.98;;;3.08;;
23470;SDS011;11908;50.806;4.424;2022-11-10T16:40:52;13.25;;;3.20;;
23470;SDS011;11908;50.806;4.424;2022-11-10T16:45:49;11.63;;;3.30;;
23470;SDS011;11908;50.806;4.424;2022-11-10T16:48:17;17.52;;;4.20;;
23470;SDS011;11908;50.806;4.424;2022-11-10T16:50:46;13.88;;;4.13;;
23470;SDS011;11908;50.806;4.424;2022-11-10T16:53:17;10.82;;;3.53;;
23470;SDS011;11908;50.806;4.424;2022-11-10T16:55:49;14.02;;;3.38;;
23470;SDS011;11908;50.806;4.424;2022-11-10T16:58:14;12.07;;;3.50;;
23470;SDS011;11908;50.806;4.424;2022-11-10T17:00:40;12.68;;;3.67;;
23470;SDS011;11908;50.806;4.424;2022-11-10T17:03:10;12.70;;;3.50;;
23470;SDS011;11908;50.806;4.424;2022-11-10T17:05:57;10.32;;;3.72;;
23470;SDS011;11908;50.806;4.424;2022-11-10T17:08:23;10.90;;;3.97;;
23470;SDS011;11908;50.806;4.424;2022-11-10T17:10:52;9.82;;;4.50;;